LEAM/LEI METAR and TAF weather

Enter ICAO airport designator
Station Type Date Time Source
LEAM METAR 2022/11/30 17:30 UTC NOAA

LEAM 301730Z VRB01KT 9999 FEW020 15/11 Q1014


Station Type Date Time Source
LEAM Decoded METAR 2022/11/30 17:30 UTC NOAA

Almeria / Aeropuerto, Spain (LEAM) 36-51N 002-23W 21M
Nov 30, 2022 - 12:30 PM EST / 2022.11.30 1730 UTC
Wind: Variable at 1 MPH (1 KT):0
Visibility: greater than 7 mile(s):0
Sky conditions: mostly clear
Temperature: 59 F (15 C)
Dew Point: 51 F (11 C)
Relative Humidity: 76%
Pressure (altimeter): 29.94 in. Hg (1014 hPa)
ob: LEAM 301730Z VRB01KT 9999 FEW020 15/11 Q1014
cycle: 17

Station Type Date Time Source
LEAM TAF 2022/11/30 18:27 UTC NOAA

TAF LEAM 301700Z 3018/0118 35006KT CAVOK TX19/0113Z TN10/0106Z
BECMG 0110/0112 07011KT

Example: see airport list